This is the latest recevied weather packets stored in our database for station/object DK8RG-15. If no packets are shown the sender has not sent any weather packets the latest 10 day(s).
| Time | Temp. | Humidity | Pressure | Rain* | Wind** | Luminosity | Snow |
|---|---|---|---|---|---|---|---|
| 1777530020 | 3.33° C | 55% | 1027.1 hPa | 0 mm | - | - | - |
| 1777529420 | 2.78° C | 57% | 1027.1 hPa | 0 mm | - | - | - |
| 1777528820 | 1.11° C | 62% | 1027 hPa | 0 mm | - | - | - |
| 1777528220 | 0.56° C | 65% | 1027 hPa | 0 mm | - | - | - |
| 1777527620 | 0° C | 67% | 1027 hPa | 0 mm | - | - | - |
| 1777527020 | 0° C | 69% | 1027 hPa | 0 mm | - | - | - |
| 1777526421 | 0° C | 71% | 1026.9 hPa | 0 mm | - | - | - |
| 1777525820 | -1.11° C | 72% | 1026.9 hPa | 0 mm | - | - | - |
| 1777525220 | -1.11° C | 73% | 1025.9 hPa | 0 mm | - | - | - |
| 1777524620 | -1.11° C | 74% | 1025.9 hPa | 0 mm | - | - | - |
| 1777524020 | -1.11° C | 73% | 1025.9 hPa | 0 mm | - | - | - |
| 1777523420 | -1.67° C | 73% | 1025.9 hPa | 0 mm | - | - | - |
| 1777522820 | -2.22° C | 73% | 1025.8 hPa | 0 mm | - | - | - |
| 1777522220 | -2.22° C | 73% | 1025.8 hPa | 0 mm | - | - | - |
| 1777521622 | -1.11° C | 73% | 1025.9 hPa | 0 mm | - | - | - |
| 1777521020 | -1.11° C | 73% | 1025.9 hPa | 0 mm | - | - | - |
| 1777520419 | -1.11° C | 73% | 1026 hPa | 0 mm | - | - | - |
| 1777519821 | -1.11° C | 73% | 1026 hPa | 0 mm | - | - | - |
| 1777519220 | -1.11° C | 73% | 1026 hPa | 0 mm | - | - | - |
| 1777518620 | -1.11° C | 73% | 1026 hPa | 0 mm | - | - | - |
| 1777518020 | -1.11° C | 72% | 1026 hPa | 0 mm | - | - | - |
| 1777517420 | -1.11° C | 72% | 1026 hPa | 0 mm | - | - | - |
| 1777516821 | -1.11° C | 72% | 1026 hPa | 0 mm | - | - | - |
| 1777516220 | -1.11° C | 72% | 1026 hPa | 0 mm | - | - | - |
| 1777515621 | -1.11° C | 71% | 1026 hPa | 0 mm | - | - | - |
* Rain latest hour (hover to see other rain measurements)
** Current wind speed in m/s (hover to see current wind gust speed)